Time;durP1;ratioP1;P1;durP2;ratioP2;P2;SDS_P1;SDS_P2;PMS_P1;PMS_P2;Temp;Humidity;BMP_temperature;BMP_pressure;BME280_temperature;BME280_humidity;BME280_pressure;Samples;Min_cycle;Max_cycle;Signal;HPM_P1;HPM_P2
2023/08/23 00:01:58;;;;;;;10.55;5.43;;;;;;;;;;5076221;28;20052;-57
2023/08/23 00:04:25;;;;;;;13.50;6.13;;;;;;;;;;5082410;28;20098;-60
2023/08/23 00:06:51;;;;;;;12.32;6.50;;;;;;;;;;5089989;28;20051;-60
2023/08/23 00:09:16;;;;;;;12.95;5.90;;;;;;;;;;5074034;28;20095;-59
2023/08/23 00:11:43;;;;;;;15.30;6.20;;;;;;;;;;5079366;28;20504;-59
2023/08/23 00:14:09;;;;;;;12.55;6.10;;;;;;;;;;5080278;28;20049;-58
2023/08/23 00:16:36;;;;;;;12.02;6.68;;;;;;;;;;5078949;28;20419;-60
2023/08/23 00:19:02;;;;;;;17.00;6.22;;;;;;;;;;5088522;28;20078;-60
2023/08/23 00:21:28;;;;;;;13.43;6.72;;;;;;;;;;5089274;28;20071;-60
2023/08/23 00:23:55;;;;;;;11.57;7.10;;;;;;;;;;5078978;28;20072;-59
2023/08/23 00:26:21;;;;;;;13.45;6.05;;;;;;;;;;5083635;28;20496;-61
2023/08/23 00:28:46;;;;;;;15.98;6.55;;;;;;;;;;5076803;28;20131;-61
2023/08/23 00:31:52;;;;;;;15.73;6.10;;;;;;;;;;5090594;28;20048;-60
2023/08/23 00:35:33;;;;;;;15.52;6.45;;;;;;;;;;5079825;28;20264;-59
2023/08/23 00:39:13;;;;;;;14.32;6.38;;;;;;;;;;5084329;28;20572;-61
2023/08/23 00:42:53;;;;;;;11.57;6.07;;;;;;;;;;5088580;28;20046;-61
2023/08/23 00:46:34;;;;;;;14.82;6.35;;;;;;;;;;5086773;28;20050;-57
2023/08/23 00:50:14;;;;;;;14.50;6.60;;;;;;;;;;5083450;28;20055;-59
2023/08/23 00:53:54;;;;;;;16.35;7.72;;;;;;;;;;5085695;28;20464;-60
2023/08/23 00:56:59;;;;;;;15.05;6.72;;;;;;;;;;5072975;28;20098;-61
2023/08/23 00:59:25;;;;;;;15.00;7.00;;;;;;;;;;5082707;28;20047;-59
2023/08/23 01:02:33;;;;;;;14.40;7.05;;;;;;;;;;5085740;28;20048;-57
2023/08/23 01:06:10;;;;;;;14.88;6.75;;;;;;;;;;5083876;28;20048;-60
2023/08/23 01:09:44;;;;;;;17.88;6.95;;;;;;;;;;5080178;28;20041;-61
2023/08/23 01:13:13;;;;;;;21.63;7.22;;;;;;;;;;5077517;28;20053;-60
2023/08/23 01:16:54;;;;;;;15.63;7.07;;;;;;;;;;5085887;28;20055;-59
2023/08/23 01:20:34;;;;;;;15.30;6.22;;;;;;;;;;5088015;28;20396;-60
2023/08/23 01:24:14;;;;;;;10.95;6.40;;;;;;;;;;5088141;28;20101;-61
2023/08/23 01:27:55;;;;;;;13.13;6.00;;;;;;;;;;5082716;28;20044;-60
2023/08/23 01:31:35;;;;;;;23.02;6.97;;;;;;;;;;5086850;28;20171;-61
2023/08/23 01:35:15;;;;;;;18.48;6.40;;;;;;;;;;5078761;28;20135;-60
2023/08/23 01:38:56;;;;;;;16.20;6.32;;;;;;;;;;5081111;28;20040;-58
2023/08/23 01:42:36;;;;;;;14.70;6.45;;;;;;;;;;5074859;28;20051;-61
2023/08/23 01:46:16;;;;;;;15.80;6.50;;;;;;;;;;5081916;28;20040;-57
2023/08/23 01:49:57;;;;;;;15.88;6.50;;;;;;;;;;5084374;28;20044;-62
2023/08/23 01:53:37;;;;;;;17.60;6.60;;;;;;;;;;5086907;28;20070;-59
2023/08/23 01:57:18;;;;;;;16.10;5.68;;;;;;;;;;5086163;28;20047;-58
2023/08/23 02:00:59;;;;;;;14.30;5.93;;;;;;;;;;5086751;28;20438;-59
2023/08/23 02:04:39;;;;;;;18.02;6.15;;;;;;;;;;5079195;28;20044;-61
2023/08/23 02:08:19;;;;;;;13.02;5.88;;;;;;;;;;5084571;28;20625;-58
2023/08/23 02:12:00;;;;;;;16.30;5.60;;;;;;;;;;5086903;28;20055;-60
2023/08/23 02:15:40;;;;;;;19.95;5.93;;;;;;;;;;5089031;28;20507;-61
2023/08/23 02:19:20;;;;;;;17.92;6.18;;;;;;;;;;5083087;28;20159;-61
2023/08/23 02:23:00;;;;;;;14.90;5.30;;;;;;;;;;5084569;28;20051;-60
2023/08/23 02:26:41;;;;;;;17.50;5.25;;;;;;;;;;5081738;28;20054;-59
2023/08/23 02:30:21;;;;;;;26.45;5.80;;;;;;;;;;5074152;28;20036;-59
2023/08/23 02:34:02;;;;;;;20.90;5.25;;;;;;;;;;5079199;28;20101;-60
2023/08/23 02:37:42;;;;;;;15.02;5.18;;;;;;;;;;5084935;28;20082;-60
2023/08/23 02:41:22;;;;;;;14.70;4.72;;;;;;;;;;5073782;28;20047;-59
2023/08/23 02:45:03;;;;;;;14.30;4.72;;;;;;;;;;5075882;28;20507;-59
2023/08/23 02:48:43;;;;;;;12.52;4.65;;;;;;;;;;5075442;28;20049;-62
2023/08/23 02:52:23;;;;;;;14.48;4.30;;;;;;;;;;5080402;28;20071;-58
2023/08/23 02:56:04;;;;;;;14.57;4.07;;;;;;;;;;5074041;28;20562;-62
2023/08/23 02:59:44;;;;;;;12.07;4.25;;;;;;;;;;5085761;28;20048;-60
2023/08/23 03:03:24;;;;;;;15.13;4.28;;;;;;;;;;5078317;28;20048;-64
2023/08/23 03:07:05;;;;;;;14.40;3.78;;;;;;;;;;5081704;28;20385;-59
2023/08/23 03:10:46;;;;;;;11.80;4.30;;;;;;;;;;5079074;28;20201;-61
2023/08/23 03:14:25;;;;;;;12.77;4.45;;;;;;;;;;5077178;28;20309;-56
2023/08/23 03:18:06;;;;;;;14.25;4.82;;;;;;;;;;5085785;28;20517;-60
2023/08/23 03:21:46;;;;;;;20.02;5.30;;;;;;;;;;5086982;28;20044;-61
2023/08/23 03:25:26;;;;;;;16.27;4.47;;;;;;;;;;5082787;28;20145;-60
2023/08/23 03:29:07;;;;;;;17.70;4.63;;;;;;;;;;5078572;28;20106;-59
2023/08/23 03:32:47;;;;;;;16.95;4.68;;;;;;;;;;5081480;28;20109;-60
2023/08/23 03:36:31;;;;;;;10.82;4.30;;;;;;;;;;5079734;28;20032;-60
2023/08/23 03:40:11;;;;;;;17.15;4.88;;;;;;;;;;5082938;28;20204;-61
2023/08/23 03:43:51;;;;;;;14.48;4.70;;;;;;;;;;5088512;28;20622;-60
2023/08/23 03:47:31;;;;;;;17.60;5.20;;;;;;;;;;5084243;28;20040;-59
2023/08/23 03:51:12;;;;;;;16.40;4.80;;;;;;;;;;5081395;28;20099;-56
2023/08/23 03:54:52;;;;;;;18.67;4.78;;;;;;;;;;5086647;28;20446;-60
2023/08/23 03:58:32;;;;;;;13.35;4.60;;;;;;;;;;5081898;28;20109;-63
2023/08/23 04:02:13;;;;;;;10.82;4.75;;;;;;;;;;5088482;28;20122;-57
2023/08/23 04:05:53;;;;;;;13.75;4.47;;;;;;;;;;5083215;28;20113;-61
2023/08/23 04:09:33;;;;;;;16.05;4.65;;;;;;;;;;5080996;28;20105;-61
2023/08/23 04:13:14;;;;;;;19.15;4.70;;;;;;;;;;5086068;28;20450;-60
2023/08/23 04:16:54;;;;;;;17.77;4.88;;;;;;;;;;5088173;28;20040;-61
2023/08/23 04:20:34;;;;;;;15.93;4.60;;;;;;;;;;5078557;28;20115;-58
2023/08/23 04:24:15;;;;;;;15.55;4.65;;;;;;;;;;5085119;28;20051;-61
2023/08/23 04:27:55;;;;;;;12.93;4.65;;;;;;;;;;5085714;28;20543;-59
2023/08/23 04:31:41;;;;;;;13.07;4.63;;;;;;;;;;5082300;28;20040;-61
2023/08/23 04:35:22;;;;;;;11.80;4.57;;;;;;;;;;5083351;28;20044;-57
2023/08/23 04:39:02;;;;;;;13.68;4.65;;;;;;;;;;5075469;28;20105;-60
2023/08/23 04:42:42;;;;;;;13.45;4.95;;;;;;;;;;5079384;28;20044;-58
2023/08/23 04:46:23;;;;;;;20.25;4.78;;;;;;;;;;5089955;28;20403;-62
2023/08/23 04:50:04;;;;;;;22.85;4.75;;;;;;;;;;5078599;28;20047;-63
2023/08/23 04:53:44;;;;;;;16.33;4.57;;;;;;;;;;5088437;28;20040;-61
2023/08/23 04:57:24;;;;;;;17.63;4.82;;;;;;;;;;5081281;28;20083;-59
2023/08/23 05:01:05;;;;;;;15.50;4.75;;;;;;;;;;5084012;28;20828;-59
2023/08/23 05:04:45;;;;;;;17.55;4.82;;;;;;;;;;5083180;28;20176;-62
2023/08/23 05:08:25;;;;;;;21.70;5.28;;;;;;;;;;5082985;28;20158;-59
2023/08/23 05:12:06;;;;;;;22.60;4.88;;;;;;;;;;5077679;28;20121;-59
2023/08/23 05:15:46;;;;;;;21.73;5.22;;;;;;;;;;5079710;28;20052;-55
2023/08/23 05:19:26;;;;;;;26.10;5.50;;;;;;;;;;5083936;28;20061;-61
2023/08/23 05:23:07;;;;;;;18.10;4.55;;;;;;;;;;5085477;28;20048;-59
2023/08/23 05:26:47;;;;;;;17.27;4.68;;;;;;;;;;5086366;28;20458;-59
2023/08/23 05:30:27;;;;;;;20.05;5.07;;;;;;;;;;5086937;28;20090;-61
2023/08/23 05:34:08;;;;;;;18.10;4.38;;;;;;;;;;5081910;28;20088;-57
2023/08/23 05:37:48;;;;;;;37.28;5.30;;;;;;;;;;5082278;28;20051;-60
2023/08/23 05:41:28;;;;;;;23.90;5.30;;;;;;;;;;5072652;28;20044;-61
2023/08/23 05:45:08;;;;;;;28.08;5.63;;;;;;;;;;5085071;28;20408;-63
2023/08/23 05:48:49;;;;;;;14.73;5.47;;;;;;;;;;5074099;28;20068;-60
2023/08/23 05:52:29;;;;;;;23.90;5.18;;;;;;;;;;5082578;28;20092;-61
2023/08/23 05:56:09;;;;;;;37.40;6.07;;;;;;;;;;5076033;28;20044;-61
2023/08/23 05:59:50;;;;;;;18.73;5.43;;;;;;;;;;5084069;28;20100;-60
2023/08/23 06:03:30;;;;;;;31.80;6.40;;;;;;;;;;5081335;28;20047;-58
2023/08/23 06:07:11;;;;;;;36.38;6.50;;;;;;;;;;5082041;28;20048;-59
2023/08/23 06:10:51;;;;;;;21.90;5.00;;;;;;;;;;5083396;28;20036;-58
2023/08/23 06:14:43;;;;;;;25.85;5.57;;;;;;;;;;5080319;28;20044;-62
2023/08/23 06:18:24;;;;;;;25.80;5.90;;;;;;;;;;5086125;28;20115;-57
2023/08/23 06:22:04;;;;;;;29.65;5.43;;;;;;;;;;5075896;28;20496;-60
2023/08/23 06:25:44;;;;;;;28.42;5.60;;;;;;;;;;5074767;28;20682;-58
2023/08/23 06:29:25;;;;;;;19.48;5.32;;;;;;;;;;5075270;28;20131;-59
2023/08/23 06:33:08;;;;;;;26.90;5.65;;;;;;;;;;5080636;28;20446;-56
2023/08/23 06:36:48;;;;;;;20.63;5.10;;;;;;;;;;5078563;28;20084;-62
2023/08/23 06:40:29;;;;;;;24.70;5.38;;;;;;;;;;5079947;28;20046;-62
2023/08/23 06:44:09;;;;;;;22.02;4.60;;;;;;;;;;5080537;28;20052;-61
2023/08/23 06:47:49;;;;;;;21.15;5.28;;;;;;;;;;5070675;28;20106;-61
2023/08/23 06:51:30;;;;;;;21.88;5.25;;;;;;;;;;5085559;28;20054;-62
2023/08/23 06:55:10;;;;;;;30.13;5.45;;;;;;;;;;5077873;28;20452;-64
2023/08/23 06:58:50;;;;;;;33.58;5.47;;;;;;;;;;5084736;28;20051;-62
2023/08/23 07:02:30;;;;;;;25.35;5.32;;;;;;;;;;5070037;28;20052;-64
2023/08/23 07:06:11;;;;;;;31.05;5.72;;;;;;;;;;5069351;28;20051;-63
2023/08/23 07:09:51;;;;;;;36.30;5.93;;;;;;;;;;5078666;28;20055;-62
2023/08/23 07:13:32;;;;;;;34.13;5.50;;;;;;;;;;5075010;28;20492;-60
2023/08/23 07:17:13;;;;;;;40.08;5.95;;;;;;;;;;5076498;28;20134;-57
2023/08/23 07:20:52;;;;;;;27.27;5.47;;;;;;;;;;5083740;28;20659;-58
2023/08/23 07:24:33;;;;;;;30.35;5.68;;;;;;;;;;5070277;28;20114;-62
2023/08/23 07:28:13;;;;;;;25.30;5.57;;;;;;;;;;5084751;28;20463;-59
2023/08/23 07:31:53;;;;;;;29.70;5.43;;;;;;;;;;5079774;28;20043;-63
2023/08/23 07:35:33;;;;;;;24.45;6.80;;;;;;;;;;5070437;28;20040;-62
2023/08/23 07:39:14;;;;;;;48.42;6.10;;;;;;;;;;5080850;28;20064;-57
2023/08/23 07:42:54;;;;;;;39.05;5.65;;;;;;;;;;5079960;28;20044;-63
2023/08/23 07:46:36;;;;;;;21.00;5.47;;;;;;;;;;5073251;28;20052;-63
2023/08/23 07:50:16;;;;;;;29.00;5.85;;;;;;;;;;5083236;28;20462;-60
2023/08/23 07:53:56;;;;;;;27.02;5.50;;;;;;;;;;5084032;28;20051;-62
2023/08/23 07:57:37;;;;;;;29.13;5.45;;;;;;;;;;5077131;28;20044;-61
2023/08/23 08:01:17;;;;;;;30.80;5.32;;;;;;;;;;5083212;28;20188;-60
2023/08/23 08:04:57;;;;;;;28.70;5.10;;;;;;;;;;5088423;28;20144;-59
2023/08/23 08:08:41;;;;;;;50.60;6.40;;;;;;;;;;5088949;28;20052;-63
2023/08/23 08:12:19;;;;;;;27.08;5.20;;;;;;;;;;5077335;28;20059;-63
2023/08/23 08:16:00;;;;;;;33.40;6.00;;;;;;;;;;5079008;28;20464;-61
2023/08/23 08:19:39;;;;;;;32.22;5.53;;;;;;;;;;5080975;28;20038;-68
2023/08/23 08:23:20;;;;;;;28.15;6.05;;;;;;;;;;5084767;28;20063;-64
2023/08/23 08:27:02;;;;;;;31.02;6.03;;;;;;;;;;5077354;28;20101;-61
2023/08/23 08:30:40;;;;;;;30.50;5.80;;;;;;;;;;5083668;28;22637;-65
2023/08/23 08:34:21;;;;;;;25.45;5.63;;;;;;;;;;5084105;28;20052;-63
2023/08/23 08:38:01;;;;;;;35.80;6.55;;;;;;;;;;5082680;28;20131;-63
2023/08/23 08:41:44;;;;;;;27.75;6.25;;;;;;;;;;5077960;28;20071;-65
2023/08/23 08:45:22;;;;;;;37.67;5.57;;;;;;;;;;5076751;28;20055;-63
2023/08/23 08:49:02;;;;;;;31.23;5.45;;;;;;;;;;5078187;28;20047;-62
2023/08/23 08:52:42;;;;;;;30.42;5.38;;;;;;;;;;5076971;28;20048;-62
2023/08/23 08:56:23;;;;;;;27.60;4.18;;;;;;;;;;5075495;28;20052;-61
2023/08/23 09:00:03;;;;;;;24.13;3.88;;;;;;;;;;5082602;28;20120;-64
2023/08/23 09:03:43;;;;;;;18.60;3.67;;;;;;;;;;5077149;28;20048;-62
2023/08/23 09:07:24;;;;;;;21.67;4.32;;;;;;;;;;5086187;28;20534;-62
2023/08/23 09:11:04;;;;;;;19.98;4.07;;;;;;;;;;5076173;28;20102;-63
2023/08/23 09:14:57;;;;;;;22.33;4.07;;;;;;;;;;5084827;28;20052;-63
2023/08/23 09:18:37;;;;;;;14.93;3.60;;;;;;;;;;5089193;28;20048;-62
2023/08/23 09:22:21;;;;;;;22.25;3.92;;;;;;;;;;5076528;28;20344;-64
2023/08/23 09:26:01;;;;;;;11.38;3.97;;;;;;;;;;5078131;28;20054;-64
2023/08/23 09:29:41;;;;;;;19.13;4.45;;;;;;;;;;5074369;28;20055;-62
2023/08/23 09:33:37;;;;;;;23.58;6.22;;;;;;;;;;5089506;28;20071;-65
2023/08/23 09:37:27;;;;;;;18.10;4.45;;;;;;;;;;5082456;28;20071;-63
2023/08/23 09:41:07;;;;;;;28.65;4.88;;;;;;;;;;5081410;28;20412;-65
2023/08/23 09:44:47;;;;;;;22.55;5.28;;;;;;;;;;5078941;28;20195;-63
2023/08/23 09:48:31;;;;;;;16.70;5.07;;;;;;;;;;5085670;28;20048;-62
2023/08/23 09:52:14;;;;;;;23.17;5.00;;;;;;;;;;5078655;28;20488;-63
2023/08/23 09:55:54;;;;;;;13.90;5.10;;;;;;;;;;5079029;28;20077;-63
2023/08/23 09:59:35;;;;;;;18.05;4.07;;;;;;;;;;5084758;28;20044;-63
2023/08/23 10:03:15;;;;;;;16.63;4.22;;;;;;;;;;5077440;28;20489;-59
2023/08/23 10:06:56;;;;;;;16.05;4.45;;;;;;;;;;5074276;28;20064;-60
2023/08/23 10:10:36;;;;;;;16.95;4.60;;;;;;;;;;5079384;28;20444;-61
2023/08/23 10:14:16;;;;;;;19.77;4.90;;;;;;;;;;5078374;28;20188;-64
2023/08/23 10:17:56;;;;;;;16.20;4.47;;;;;;;;;;5082154;28;20128;-60
2023/08/23 10:21:37;;;;;;;16.55;4.75;;;;;;;;;;5071882;28;20036;-58
2023/08/23 10:25:17;;;;;;;15.10;4.25;;;;;;;;;;5075491;28;20055;-59
2023/08/23 10:28:57;;;;;;;19.02;4.65;;;;;;;;;;5078687;28;20047;-58
2023/08/23 10:32:37;;;;;;;22.55;4.70;;;;;;;;;;5076387;28;20411;-62
2023/08/23 10:36:18;;;;;;;21.13;4.53;;;;;;;;;;5081471;28;20369;-60
2023/08/23 10:39:58;;;;;;;9.70;3.72;;;;;;;;;;5073485;28;20047;-61
2023/08/23 10:43:39;;;;;;;11.98;3.92;;;;;;;;;;5082598;28;20056;-67
2023/08/23 10:47:22;;;;;;;18.05;4.07;;;;;;;;;;5080735;28;20047;-63
2023/08/23 10:51:02;;;;;;;12.82;3.45;;;;;;;;;;5082647;28;20201;-62
2023/08/23 10:54:43;;;;;;;17.70;4.18;;;;;;;;;;5076057;28;20508;-60
